createdAt,value
2023-05-13T00:01:19.096Z,10.50
2023-05-13T00:03:46.116Z,10.50
2023-05-13T00:06:13.053Z,10.50
2023-05-13T00:08:39.860Z,10.50
2023-05-13T00:11:06.759Z,10.60
2023-05-13T00:13:34.082Z,10.60
2023-05-13T00:16:01.127Z,10.60
2023-05-13T00:18:28.093Z,10.60
2023-05-13T00:20:56.309Z,10.50
2023-05-13T00:23:24.146Z,10.50
2023-05-13T00:25:51.059Z,10.50
2023-05-13T00:28:17.938Z,10.50
2023-05-13T00:30:46.770Z,10.50
2023-05-13T00:33:13.913Z,10.50
2023-05-13T00:35:41.774Z,10.50
2023-05-13T00:38:13.043Z,10.50
2023-05-13T00:40:39.984Z,10.60
2023-05-13T00:43:07.312Z,10.50
2023-05-13T00:45:37.418Z,10.50
2023-05-13T00:48:06.580Z,10.50
2023-05-13T00:50:33.891Z,10.40
2023-05-13T00:53:00.747Z,10.50
2023-05-13T00:55:27.704Z,10.50
2023-05-13T00:57:54.548Z,10.40
2023-05-13T01:00:22.507Z,10.40
2023-05-13T01:03:00.410Z,10.40
2023-05-13T01:05:41.519Z,10.40
2023-05-13T01:08:17.966Z,10.30
2023-05-13T01:10:46.537Z,10.30
2023-05-13T01:13:16.771Z,10.30
2023-05-13T01:16:00.721Z,10.30
2023-05-13T01:18:36.189Z,10.30
2023-05-13T01:21:04.204Z,10.30
2023-05-13T01:23:32.239Z,10.30
2023-05-13T01:26:00.279Z,10.30
2023-05-13T01:28:27.140Z,10.30
2023-05-13T01:30:57.216Z,10.20
2023-05-13T01:33:24.262Z,10.20
2023-05-13T01:35:51.636Z,10.20
2023-05-13T01:38:19.742Z,10.20
2023-05-13T01:40:49.214Z,10.10
2023-05-13T01:43:16.029Z,10.10
2023-05-13T01:45:43.958Z,10.10
2023-05-13T01:48:11.347Z,10.10
2023-05-13T01:50:38.252Z,10.20
2023-05-13T01:53:05.398Z,10.10
2023-05-13T01:55:32.483Z,10.20
2023-05-13T01:58:02.891Z,10.20
2023-05-13T02:00:32.360Z,10.20
2023-05-13T02:02:59.237Z,10.20
2023-05-13T02:05:26.164Z,10.30
2023-05-13T02:07:54.019Z,10.20
2023-05-13T02:10:21.162Z,10.30
2023-05-13T02:12:49.217Z,10.30
2023-05-13T02:15:16.803Z,10.40
2023-05-13T02:17:43.681Z,10.40
2023-05-13T02:20:12.347Z,10.40
2023-05-13T02:22:40.556Z,10.40
2023-05-13T02:25:11.067Z,10.40
2023-05-13T02:27:38.303Z,10.40
2023-05-13T02:30:05.736Z,10.50
2023-05-13T02:32:33.153Z,10.50
2023-05-13T02:35:00.199Z,10.50
2023-05-13T02:37:30.230Z,10.50
2023-05-13T02:39:57.512Z,10.60
2023-05-13T02:42:24.656Z,10.60
2023-05-13T02:44:51.812Z,10.60
2023-05-13T02:47:18.691Z,10.60
2023-05-13T02:49:46.654Z,10.60
2023-05-13T02:52:13.489Z,10.60
2023-05-13T02:54:40.358Z,10.60
2023-05-13T02:57:08.184Z,10.60
2023-05-13T02:59:34.995Z,10.60
2023-05-13T03:02:01.894Z,10.60
2023-05-13T03:04:29.859Z,10.60
2023-05-13T03:06:56.700Z,10.60
2023-05-13T03:09:25.862Z,10.70
2023-05-13T03:11:52.858Z,10.70
2023-05-13T03:14:20.800Z,10.70
2023-05-13T03:16:47.626Z,10.70
2023-05-13T03:19:14.548Z,10.60
2023-05-13T03:21:42.911Z,10.70
2023-05-13T03:24:09.762Z,10.60
2023-05-13T03:26:36.601Z,10.60
2023-05-13T03:29:03.448Z,10.50
2023-05-13T03:31:30.577Z,10.50
2023-05-13T03:33:58.450Z,10.40
2023-05-13T03:36:28.189Z,10.40
2023-05-13T03:38:56.964Z,10.40
2023-05-13T03:41:23.780Z,10.40
2023-05-13T03:43:52.021Z,10.40
2023-05-13T03:46:18.981Z,10.40
2023-05-13T03:48:45.885Z,10.40
2023-05-13T03:51:13.061Z,10.50
2023-05-13T03:53:40.074Z,10.50
2023-05-13T03:56:07.762Z,10.50
2023-05-13T03:58:34.593Z,10.50
2023-05-13T04:01:01.769Z,10.50
2023-05-13T04:03:29.228Z,10.50
2023-05-13T04:05:56.145Z,10.50
2023-05-13T04:08:22.992Z,10.50
2023-05-13T04:10:50.853Z,10.50
2023-05-13T04:13:18.233Z,10.50
2023-05-13T04:15:46.458Z,10.40
2023-05-13T04:18:13.307Z,10.40
2023-05-13T04:20:40.530Z,10.40
2023-05-13T04:23:08.566Z,10.40
2023-05-13T04:25:35.608Z,10.40
2023-05-13T04:28:02.488Z,10.40
2023-05-13T04:30:29.334Z,10.40
2023-05-13T04:32:56.815Z,10.40
2023-05-13T04:35:24.034Z,10.40
2023-05-13T04:37:50.845Z,10.40
2023-05-13T04:40:20.942Z,10.40
2023-05-13T04:42:54.535Z,10.50
2023-05-13T04:45:23.915Z,10.50
2023-05-13T04:47:50.865Z,10.40
2023-05-13T04:50:19.166Z,10.40
2023-05-13T04:52:47.671Z,10.40
2023-05-13T04:55:15.401Z,10.40
2023-05-13T04:57:42.563Z,10.40
2023-05-13T05:00:10.816Z,10.40
2023-05-13T05:02:37.656Z,10.40
2023-05-13T05:05:06.163Z,10.30
2023-05-13T05:07:33.304Z,10.30
2023-05-13T05:10:00.116Z,10.40
2023-05-13T05:12:28.220Z,10.50
2023-05-13T05:14:55.175Z,10.50
2023-05-13T05:17:24.723Z,10.60
2023-05-13T05:19:51.616Z,10.70
2023-05-13T05:22:19.590Z,10.70
2023-05-13T05:24:48.033Z,10.80
2023-05-13T05:27:16.005Z,10.80
2023-05-13T05:29:42.835Z,10.90
2023-05-13T05:32:09.720Z,11.00
2023-05-13T05:34:37.277Z,11.00
2023-05-13T05:37:04.417Z,11.00
2023-05-13T05:39:35.334Z,11.00
2023-05-13T05:42:02.419Z,10.90
2023-05-13T05:44:30.203Z,10.90
2023-05-13T05:46:57.029Z,11.00
2023-05-13T05:49:25.140Z,11.10
2023-05-13T05:51:52.009Z,11.20
2023-05-13T05:54:18.828Z,11.20
2023-05-13T05:56:46.923Z,11.20
2023-05-13T05:59:13.738Z,11.30
2023-05-13T06:01:41.506Z,11.30
2023-05-13T06:04:08.571Z,11.30
2023-05-13T06:06:36.492Z,11.30
2023-05-13T06:09:04.346Z,11.40
2023-05-13T06:11:31.377Z,11.40
2023-05-13T06:13:58.293Z,11.40
2023-05-13T06:16:25.999Z,11.50
2023-05-13T06:18:53.026Z,11.60
2023-05-13T06:21:21.541Z,11.60
2023-05-13T06:23:48.404Z,11.70
2023-05-13T06:26:15.300Z,11.80
2023-05-13T06:28:42.220Z,11.80
2023-05-13T06:31:09.365Z,11.90
2023-05-13T06:33:37.021Z,11.90
2023-05-13T06:36:04.252Z,11.90
2023-05-13T06:38:31.112Z,12.00
2023-05-13T06:41:00.282Z,12.00
2023-05-13T06:43:27.440Z,12.20
2023-05-13T06:45:54.595Z,12.30
2023-05-13T06:48:21.369Z,12.30
2023-05-13T06:50:50.317Z,12.40
2023-05-13T06:53:19.266Z,12.40
2023-05-13T06:55:47.985Z,12.50
2023-05-13T06:58:15.009Z,12.50
2023-05-13T07:00:41.965Z,12.50
2023-05-13T07:03:09.105Z,12.50
2023-05-13T07:05:36.182Z,12.50
2023-05-13T07:08:09.388Z,12.60
2023-05-13T07:10:37.009Z,12.60
2023-05-13T07:13:07.342Z,12.60
2023-05-13T07:15:34.197Z,12.70
2023-05-13T07:18:01.051Z,12.70
2023-05-13T07:20:28.239Z,12.80
2023-05-13T07:22:55.124Z,12.80
2023-05-13T07:25:23.421Z,12.90
2023-05-13T07:27:50.372Z,12.90
2023-05-13T07:30:18.586Z,13.00
2023-05-13T07:32:45.631Z,13.00
2023-05-13T07:35:12.625Z,13.10
2023-05-13T07:37:40.440Z,13.20
2023-05-13T07:40:08.144Z,13.40
2023-05-13T07:42:36.643Z,13.50
2023-05-13T07:45:04.308Z,13.60
2023-05-13T07:47:32.144Z,13.60
2023-05-13T07:50:01.838Z,13.70
2023-05-13T07:52:29.733Z,13.70
2023-05-13T07:54:56.789Z,13.80
2023-05-13T07:57:24.726Z,13.80
2023-05-13T07:59:54.748Z,13.90
2023-05-13T08:02:22.124Z,13.90
2023-05-13T08:04:49.051Z,14.00
2023-05-13T08:07:16.278Z,14.10
2023-05-13T08:09:44.120Z,14.20
2023-05-13T08:12:11.188Z,14.20
2023-05-13T08:14:38.888Z,14.20
2023-05-13T08:17:08.210Z,14.30
2023-05-13T08:19:36.071Z,14.40
2023-05-13T08:22:04.109Z,14.50
2023-05-13T08:24:31.261Z,14.60
2023-05-13T08:26:58.125Z,14.60
2023-05-13T08:29:26.223Z,14.60
2023-05-13T08:31:53.777Z,14.70
2023-05-13T08:34:21.757Z,14.80
2023-05-13T08:36:48.597Z,14.90
2023-05-13T08:39:16.997Z,14.90
2023-05-13T08:41:44.553Z,15.00
2023-05-13T08:44:13.717Z,15.20
2023-05-13T08:46:41.486Z,15.30
2023-05-13T08:49:11.693Z,15.40
2023-05-13T08:51:39.404Z,15.40
2023-05-13T08:54:09.511Z,15.50
2023-05-13T08:56:37.386Z,15.60
2023-05-13T08:59:04.357Z,15.80
2023-05-13T09:01:31.361Z,15.90
2023-05-13T09:04:01.441Z,16.00
2023-05-13T09:06:30.866Z,16.00
2023-05-13T09:08:57.825Z,16.00
2023-05-13T09:11:24.794Z,16.10
2023-05-13T09:13:58.921Z,16.20
2023-05-13T09:16:28.799Z,16.30
2023-05-13T09:19:14.189Z,16.50
2023-05-13T09:21:41.060Z,16.60
2023-05-13T09:24:11.156Z,16.70
2023-05-13T09:26:38.532Z,16.70
2023-05-13T09:29:23.284Z,16.70
2023-05-13T09:32:01.252Z,16.80
2023-05-13T09:34:34.738Z,16.80
2023-05-13T09:37:06.802Z,16.80
2023-05-13T09:39:43.329Z,16.80
2023-05-13T09:42:17.332Z,16.80
2023-05-13T09:44:46.975Z,16.70
2023-05-13T09:47:14.510Z,16.70
2023-05-13T09:49:43.063Z,16.60
2023-05-13T09:52:12.008Z,16.60
2023-05-13T09:54:39.065Z,16.50
2023-05-13T09:57:07.046Z,16.50
2023-05-13T09:59:34.549Z,16.50
2023-05-13T10:02:05.391Z,16.50
2023-05-13T10:04:33.181Z,16.60
2023-05-13T10:07:00.025Z,16.60
2023-05-13T10:09:30.777Z,16.70
2023-05-13T10:11:57.681Z,16.70
2023-05-13T10:14:24.511Z,16.70
2023-05-13T10:16:51.697Z,16.80
2023-05-13T10:19:19.523Z,16.80
2023-05-13T10:21:46.807Z,16.80
2023-05-13T10:24:13.805Z,16.80
2023-05-13T10:26:43.740Z,16.80
2023-05-13T10:29:10.849Z,16.90
2023-05-13T10:31:39.010Z,16.90
2023-05-13T10:34:05.931Z,16.90
2023-05-13T10:37:00.509Z,16.90
2023-05-13T10:39:57.653Z,16.90
2023-05-13T10:42:37.041Z,16.90
2023-05-13T10:45:05.015Z,17.00
2023-05-13T10:47:35.511Z,17.00
2023-05-13T10:50:07.623Z,17.10
2023-05-13T10:52:47.241Z,17.10
2023-05-13T10:55:20.401Z,17.10
2023-05-13T10:58:30.705Z,17.20
2023-05-13T11:01:29.689Z,17.20
2023-05-13T11:04:01.642Z,17.20
2023-05-13T11:06:45.650Z,17.20
2023-05-13T11:09:29.207Z,17.20
2023-05-13T11:12:04.316Z,17.30
2023-05-13T11:14:31.214Z,17.30
2023-05-13T11:17:00.567Z,17.30
2023-05-13T11:19:37.718Z,17.30
2023-05-13T11:22:15.159Z,17.30
2023-05-13T11:24:42.358Z,17.20
2023-05-13T11:27:17.666Z,17.30
2023-05-13T11:29:50.835Z,17.30
2023-05-13T11:32:54.340Z,17.40
2023-05-13T11:35:27.064Z,17.40
2023-05-13T11:37:59.872Z,17.50
2023-05-13T11:40:32.190Z,17.50
2023-05-13T11:42:59.463Z,17.50
2023-05-13T11:45:26.997Z,17.50
2023-05-13T11:47:54.175Z,17.60
2023-05-13T11:50:21.808Z,17.60
2023-05-13T11:53:00.665Z,17.70
2023-05-13T11:55:32.111Z,17.70
2023-05-13T11:58:02.467Z,17.70
2023-05-13T12:00:34.447Z,17.80
2023-05-13T12:03:03.260Z,17.80
2023-05-13T12:05:30.587Z,17.80
2023-05-13T12:07:58.180Z,17.80
2023-05-13T12:10:28.692Z,17.80
2023-05-13T12:12:55.581Z,17.80
2023-05-13T12:15:23.229Z,17.90
2023-05-13T12:17:50.495Z,17.80
2023-05-13T12:20:17.926Z,17.80
2023-05-13T12:22:44.808Z,17.80
2023-05-13T12:25:37.311Z,17.80
2023-05-13T12:28:13.386Z,17.80
2023-05-13T12:30:42.113Z,17.90
2023-05-13T12:33:16.403Z,17.90
2023-05-13T12:35:44.559Z,17.90
2023-05-13T12:38:16.465Z,17.90
2023-05-13T12:40:44.523Z,18.00
2023-05-13T12:43:12.399Z,18.00
2023-05-13T12:45:45.115Z,18.00
2023-05-13T12:48:13.553Z,18.00
2023-05-13T12:50:40.504Z,17.90
2023-05-13T12:53:07.466Z,17.90
2023-05-13T12:55:39.969Z,17.90
2023-05-13T12:58:10.986Z,17.90
2023-05-13T13:00:38.245Z,18.10
2023-05-13T13:03:05.264Z,18.20
2023-05-13T13:05:33.699Z,18.20
2023-05-13T13:08:05.391Z,18.20
2023-05-13T13:10:32.370Z,18.30
2023-05-13T13:12:59.603Z,18.40
2023-05-13T13:15:26.988Z,18.60
2023-05-13T13:17:53.813Z,18.70
2023-05-13T13:20:20.712Z,18.60
2023-05-13T13:22:47.718Z,18.70
2023-05-13T13:25:14.562Z,18.60
2023-05-13T13:27:42.356Z,18.60
2023-05-13T13:30:09.570Z,18.50
2023-05-13T13:32:39.835Z,18.40
2023-05-13T13:35:07.259Z,18.30
2023-05-13T13:37:36.245Z,18.30
2023-05-13T13:40:06.104Z,18.20
2023-05-13T13:42:43.201Z,18.10
2023-05-13T13:45:15.005Z,18.10
2023-05-13T13:47:41.948Z,18.30
2023-05-13T13:50:09.298Z,18.30
2023-05-13T13:52:36.226Z,18.40
2023-05-13T13:55:03.382Z,18.40
2023-05-13T13:57:30.919Z,18.60
2023-05-13T13:59:57.748Z,18.60
2023-05-13T14:02:24.716Z,18.50
2023-05-13T14:04:53.810Z,18.60
2023-05-13T14:07:20.699Z,18.60
2023-05-13T14:09:48.413Z,18.60
2023-05-13T14:12:15.339Z,18.50
2023-05-13T14:14:42.293Z,18.50
2023-05-13T14:17:11.127Z,18.50
2023-05-13T14:19:39.488Z,18.40
2023-05-13T14:22:06.666Z,18.40
2023-05-13T14:24:33.747Z,18.60
2023-05-13T14:27:01.787Z,18.60
2023-05-13T14:29:28.749Z,18.70
2023-05-13T14:31:56.774Z,18.80
2023-05-13T14:34:24.477Z,18.80
2023-05-13T14:36:51.663Z,18.90
2023-05-13T14:39:19.632Z,19.00
2023-05-13T14:41:46.416Z,18.90
2023-05-13T14:44:14.654Z,18.90
2023-05-13T14:46:41.840Z,18.90
2023-05-13T14:49:08.713Z,18.80
2023-05-13T14:51:36.676Z,18.70
2023-05-13T14:54:03.808Z,18.70
2023-05-13T14:56:31.751Z,18.70
2023-05-13T14:58:59.275Z,18.70
2023-05-13T15:01:26.236Z,18.70
2023-05-13T15:03:53.535Z,19.00
2023-05-13T15:06:20.603Z,19.10
2023-05-13T15:08:47.404Z,19.20
2023-05-13T15:11:14.360Z,19.10
2023-05-13T15:13:41.274Z,19.10
2023-05-13T15:16:09.329Z,19.00
2023-05-13T15:18:36.200Z,18.90
2023-05-13T15:21:05.717Z,18.90
2023-05-13T15:23:33.840Z,18.90
2023-05-13T15:26:04.063Z,18.90
2023-05-13T15:28:30.985Z,18.90
2023-05-13T15:30:58.253Z,18.80
2023-05-13T15:33:26.764Z,18.80
2023-05-13T15:35:54.843Z,18.70
2023-05-13T15:38:21.739Z,18.70
2023-05-13T15:40:49.467Z,18.70
2023-05-13T15:43:16.393Z,18.70
2023-05-13T15:45:43.315Z,18.80
2023-05-13T15:48:11.450Z,18.80
2023-05-13T15:50:39.298Z,18.90
2023-05-13T15:53:06.255Z,18.90
2023-05-13T15:55:34.102Z,18.90
2023-05-13T15:58:00.965Z,19.10
2023-05-13T16:00:28.061Z,19.10
2023-05-13T16:02:56.108Z,19.10
2023-05-13T16:05:25.697Z,19.10
2023-05-13T16:07:52.529Z,19.10
2023-05-13T16:10:21.009Z,18.90
2023-05-13T16:12:47.953Z,18.70
2023-05-13T16:15:14.952Z,18.60
2023-05-13T16:17:41.864Z,18.50
2023-05-13T16:20:11.416Z,18.40
2023-05-13T16:22:39.151Z,18.30
2023-05-13T16:25:09.570Z,18.10
2023-05-13T16:27:37.068Z,18.00
2023-05-13T16:30:08.664Z,17.90
2023-05-13T16:32:35.992Z,17.90
2023-05-13T16:35:03.713Z,17.80
2023-05-13T16:37:32.082Z,17.70
2023-05-13T16:39:59.214Z,17.60
2023-05-13T16:42:26.168Z,17.50
2023-05-13T16:44:53.361Z,17.40
2023-05-13T16:47:20.431Z,17.30
2023-05-13T16:49:49.925Z,17.20
2023-05-13T16:52:16.778Z,17.20
2023-05-13T16:54:44.047Z,17.00
2023-05-13T16:57:10.921Z,17.00
2023-05-13T16:59:41.274Z,16.90
2023-05-13T17:02:08.242Z,16.90
2023-05-13T17:04:35.318Z,17.10
2023-05-13T17:07:03.244Z,17.00
2023-05-13T17:09:30.928Z,16.90
2023-05-13T17:11:58.696Z,16.90
2023-05-13T17:14:25.577Z,16.80
2023-05-13T17:16:53.802Z,16.70
2023-05-13T17:19:20.766Z,16.60
2023-05-13T17:21:47.989Z,16.50
2023-05-13T17:24:18.021Z,16.40
2023-05-13T17:26:46.117Z,16.40
2023-05-13T17:29:13.076Z,16.40
2023-05-13T17:31:40.053Z,16.30
2023-05-13T17:34:11.031Z,16.20
2023-05-13T17:36:41.043Z,16.10
2023-05-13T17:39:07.836Z,16.10
2023-05-13T17:41:36.016Z,16.00
2023-05-13T17:44:03.061Z,15.90
2023-05-13T17:46:34.081Z,15.90
2023-05-13T17:49:01.571Z,15.80
2023-05-13T17:51:28.586Z,15.70
2023-05-13T17:53:56.585Z,15.70
2023-05-13T17:56:23.455Z,15.60
2023-05-13T17:58:50.624Z,15.60
2023-05-13T18:01:19.166Z,15.50
2023-05-13T18:03:46.195Z,15.50
2023-05-13T18:06:13.177Z,15.40
2023-05-13T18:08:40.855Z,15.30
2023-05-13T18:11:07.930Z,15.20
2023-05-13T18:13:36.336Z,15.20
2023-05-13T18:16:04.675Z,15.10
2023-05-13T18:18:32.255Z,15.00
2023-05-13T18:21:00.072Z,14.90
2023-05-13T18:23:27.855Z,14.80
2023-05-13T18:25:57.215Z,14.70
2023-05-13T18:28:24.289Z,14.70
2023-05-13T18:30:51.197Z,14.60
2023-05-13T18:33:19.867Z,14.60
2023-05-13T18:35:46.948Z,14.60
2023-05-13T18:38:13.893Z,14.60
2023-05-13T18:40:40.718Z,14.50
2023-05-13T18:43:07.536Z,14.50
2023-05-13T18:45:34.388Z,14.50
2023-05-13T18:48:03.089Z,14.50
2023-05-13T18:50:31.686Z,14.40
2023-05-13T18:52:58.796Z,14.30
2023-05-13T18:55:25.628Z,14.20
2023-05-13T18:57:52.583Z,14.20
2023-05-13T19:00:20.630Z,14.20
2023-05-13T19:02:47.873Z,14.10
2023-05-13T19:05:16.830Z,14.10
2023-05-13T19:07:44.865Z,13.90
2023-05-13T19:10:13.083Z,13.90
2023-05-13T19:12:39.913Z,14.00
2023-05-13T19:15:08.286Z,13.90
2023-05-13T19:17:35.226Z,13.80
2023-05-13T19:20:03.644Z,13.70
2023-05-13T19:22:30.569Z,13.80
2023-05-13T19:24:57.538Z,13.70
2023-05-13T19:27:26.315Z,13.60
2023-05-13T19:29:54.186Z,13.50
2023-05-13T19:32:21.323Z,13.40
2023-05-13T19:34:48.196Z,13.30
2023-05-13T19:37:15.572Z,13.30
2023-05-13T19:39:43.015Z,13.30
2023-05-13T19:42:09.897Z,13.20
2023-05-13T19:44:37.028Z,13.20
2023-05-13T19:47:06.358Z,13.10
2023-05-13T19:49:35.665Z,13.10
2023-05-13T19:52:03.899Z,13.00
2023-05-13T19:54:30.848Z,12.90
2023-05-13T19:56:57.830Z,12.80
2023-05-13T19:59:28.236Z,12.70
2023-05-13T20:01:55.141Z,12.70
2023-05-13T20:04:22.800Z,12.70
2023-05-13T20:06:49.756Z,12.70
2023-05-13T20:09:19.459Z,12.60
2023-05-13T20:11:46.391Z,12.60
2023-05-13T20:14:18.779Z,12.50
2023-05-13T20:16:46.047Z,12.40
2023-05-13T20:19:12.941Z,12.30
2023-05-13T20:21:40.364Z,12.30
2023-05-13T20:24:07.419Z,12.20
2023-05-13T20:26:36.644Z,12.20
2023-05-13T20:29:04.781Z,12.20
2023-05-13T20:31:34.577Z,12.10
2023-05-13T20:34:01.555Z,12.10
2023-05-13T20:36:28.375Z,12.00
2023-05-13T20:38:55.843Z,12.00
2023-05-13T20:41:23.125Z,11.90
2023-05-13T20:43:51.114Z,11.90
2023-05-13T20:46:17.998Z,11.90
2023-05-13T20:48:45.979Z,11.80
2023-05-13T20:51:12.876Z,11.80
2023-05-13T20:53:40.118Z,11.70
2023-05-13T20:56:11.064Z,11.70
2023-05-13T20:58:38.760Z,11.60
2023-05-13T21:01:12.695Z,11.60
2023-05-13T21:03:39.727Z,11.50
2023-05-13T21:06:06.808Z,11.50
2023-05-13T21:08:39.699Z,11.40
2023-05-13T21:11:06.772Z,11.30
2023-05-13T21:13:33.892Z,11.30
2023-05-13T21:16:04.569Z,11.20
2023-05-13T21:18:31.889Z,11.20
2023-05-13T21:20:58.746Z,11.20
2023-05-13T21:23:25.725Z,11.20
2023-05-13T21:25:52.523Z,11.10
2023-05-13T21:28:19.324Z,11.10
2023-05-13T21:30:46.728Z,11.10
2023-05-13T21:33:15.746Z,11.10
2023-05-13T21:35:48.099Z,11.00
2023-05-13T21:38:17.999Z,11.00
2023-05-13T21:40:44.932Z,11.00
2023-05-13T21:43:13.875Z,10.90
2023-05-13T21:45:41.189Z,10.90
2023-05-13T21:48:11.149Z,10.90
2023-05-13T21:50:38.701Z,10.90
2023-05-13T21:53:05.796Z,10.80
2023-05-13T21:55:35.145Z,10.80
2023-05-13T21:58:03.339Z,10.70
2023-05-13T22:00:30.403Z,10.80
2023-05-13T22:02:57.406Z,10.70
2023-05-13T22:05:25.226Z,10.70
2023-05-13T22:07:52.042Z,10.60
2023-05-13T22:10:18.930Z,10.60
2023-05-13T22:12:46.636Z,10.60
2023-05-13T22:15:13.494Z,10.60
2023-05-13T22:17:42.015Z,10.50
2023-05-13T22:20:09.294Z,10.50
2023-05-13T22:22:36.157Z,10.50
2023-05-13T22:25:04.431Z,10.50
2023-05-13T22:27:31.308Z,10.40
2023-05-13T22:29:58.444Z,10.30
2023-05-13T22:32:25.492Z,10.30
2023-05-13T22:34:52.383Z,10.30
2023-05-13T22:37:20.096Z,10.30
2023-05-13T22:39:46.941Z,10.20
2023-05-13T22:42:16.284Z,10.20
2023-05-13T22:44:43.148Z,10.20
2023-05-13T22:47:10.001Z,10.10
2023-05-13T22:49:37.470Z,10.10
2023-05-13T22:52:04.666Z,10.10
2023-05-13T22:54:32.835Z,10.10
2023-05-13T22:56:59.677Z,10.00
2023-05-13T22:59:28.180Z,10.00
2023-05-13T23:01:55.076Z,10.00
2023-05-13T23:04:22.067Z,10.00
2023-05-13T23:06:50.062Z,9.90
2023-05-13T23:09:16.901Z,9.90
2023-05-13T23:11:43.722Z,9.80
2023-05-13T23:14:12.127Z,9.80
2023-05-13T23:16:39.141Z,9.80
2023-05-13T23:19:07.498Z,9.70
2023-05-13T23:21:34.386Z,9.80
2023-05-13T23:24:01.215Z,9.80
2023-05-13T23:26:29.289Z,9.80
2023-05-13T23:28:56.221Z,9.80
2023-05-13T23:31:23.096Z,9.80
2023-05-13T23:33:50.055Z,9.70
2023-05-13T23:36:17.060Z,9.70
2023-05-13T23:38:44.849Z,9.80
2023-05-13T23:41:11.687Z,9.70
2023-05-13T23:43:41.743Z,9.80
2023-05-13T23:46:10.269Z,9.80
2023-05-13T23:48:38.490Z,9.80
2023-05-13T23:51:05.904Z,9.80
2023-05-13T23:53:34.225Z,9.70
2023-05-13T23:56:01.102Z,9.70
2023-05-13T23:58:28.079Z,9.70
